Time;durP1;ratioP1;P1;durP2;ratioP2;P2;SDS_P1;SDS_P2;PMS_P1;PMS_P2;Temp;Humidity;BMP_temperature;BMP_pressure;BME280_temperature;BME280_humidity;BME280_pressure;Samples;Min_cycle;Max_cycle;Signal;HPM_P1;HPM_P2
2022/05/24 00:00:38;;;;;;;5.07;4.00;;;;;;;23.26;54.63;98429.53;4140760;28;20234;-68
2022/05/24 00:02:40;;;;;;;6.13;4.33;;;;;;;23.16;55.76;98433.06;4143443;28;20307;-68
2022/05/24 00:04:42;;;;;;;5.00;3.87;;;;;;;21.79;58.16;98438.84;4144863;28;20268;-67
2022/05/24 00:06:44;;;;;;;4.53;3.57;;;;;;;22.77;55.29;98439.03;4142482;28;20726;-68
2022/05/24 00:08:46;;;;;;;4.60;3.60;;;;;;;22.08;57.04;98438.38;4144464;28;21310;-68
2022/05/24 00:10:48;;;;;;;4.47;3.90;;;;;;;22.12;57.33;98434.09;4142880;28;20299;-68
2022/05/24 00:12:49;;;;;;;4.33;3.93;;;;;;;22.93;56.14;98421.72;4141733;28;20642;-67
2022/05/24 00:17:12;;;;;;;4.10;3.70;;;;;;;23.26;55.09;98421.38;4135364;28;20242;-68
2022/05/24 00:19:14;;;;;;;5.47;4.00;;;;;;;23.31;55.64;98421.38;4134886;28;20244;-68
2022/05/24 00:21:15;;;;;;;5.60;4.07;;;;;;;22.40;57.87;98423.88;4136606;28;20292;-68
2022/05/24 00:23:19;;;;;;;4.60;4.20;;;;;;;21.24;60.67;98429.34;4141918;28;20233;-67
2022/05/24 00:25:21;;;;;;;5.20;3.80;;;;;;;22.06;58.75;98417.00;4142693;28;20287;-67
2022/05/24 00:27:23;;;;;;;4.93;4.40;;;;;;;22.41;57.37;98415.47;4142855;28;20233;-68
2022/05/24 00:29:24;;;;;;;5.67;4.53;;;;;;;22.33;58.22;98413.28;4138306;28;20303;-68
2022/05/24 00:31:26;;;;;;;5.40;3.93;;;;;;;22.61;56.93;98422.78;4140852;28;20233;-67
2022/05/24 00:33:28;;;;;;;7.23;4.27;;;;;;;23.36;55.55;98413.22;4137329;28;20842;-68
2022/05/24 00:35:30;;;;;;;5.33;4.10;;;;;;;23.14;55.49;98422.47;4132334;28;20237;-68
2022/05/24 00:37:33;;;;;;;5.10;4.30;;;;;;;24.44;53.18;98407.25;4138072;28;20233;-69
2022/05/24 00:39:35;;;;;;;5.97;4.23;;;;;;;22.89;55.96;98426.00;4141326;28;20229;-69
2022/05/24 00:42:01;;;;;;;5.30;4.23;;;;;;;24.35;53.06;98411.69;4142504;28;20259;-69
2022/05/24 00:44:27;;;;;;;4.77;4.33;;;;;;;24.43;52.61;98419.22;4143119;28;20287;-68
2022/05/24 00:47:03;;;;;;;6.67;4.63;;;;;;;23.80;53.53;98423.38;4137741;28;20284;-66
2022/05/24 00:49:09;;;;;;;5.23;4.70;;;;;;;23.13;55.12;98422.75;4143296;28;20237;-69
2022/05/24 00:51:12;;;;;;;7.63;4.80;;;;;;;23.44;54.08;98428.13;4140763;28;20260;-68
2022/05/24 00:53:22;;;;;;;5.87;5.00;;;;;;;23.26;54.12;98424.09;4137536;28;20285;-69
2022/05/24 00:55:25;;;;;;;5.73;4.83;;;;;;;22.72;55.42;98425.50;4143219;28;20291;-68
2022/05/24 00:57:27;;;;;;;7.77;5.40;;;;;;;23.54;53.40;98407.19;4142572;28;20244;-69
2022/05/24 00:59:50;;;;;;;6.43;4.90;;;;;;;21.29;58.09;98418.56;4139239;28;20240;-69
2022/05/24 01:01:52;;;;;;;6.40;4.17;;;;;;;22.39;56.11;98400.56;4139377;28;20233;-69
2022/05/24 01:03:54;;;;;;;5.70;4.80;;;;;;;22.70;55.19;98400.56;4139436;28;20694;-69
2022/05/24 01:05:56;;;;;;;6.87;4.70;;;;;;;22.80;54.60;98406.00;4143223;28;20271;-68
2022/05/24 01:07:58;;;;;;;6.07;5.00;;;;;;;23.24;53.76;98399.16;4142270;28;20279;-69
2022/05/24 01:10:03;;;;;;;6.50;5.50;;;;;;;22.93;54.51;98408.16;4140511;28;20651;-69
2022/05/24 01:12:10;;;;;;;5.77;5.00;;;;;;;23.66;52.58;98393.31;4141447;28;20237;-66
2022/05/24 01:14:15;;;;;;;5.50;5.00;;;;;;;23.06;53.91;98403.25;4138056;28;20233;-69
2022/05/24 01:16:17;;;;;;;7.10;5.17;;;;;;;22.34;54.76;98411.38;4126185;28;20229;-69
2022/05/24 01:18:21;;;;;;;5.93;4.90;;;;;;;23.86;52.09;98400.56;4134155;28;20230;-68
2022/05/24 01:20:23;;;;;;;5.70;4.80;;;;;;;22.42;54.78;98413.56;4133130;28;20237;-69
2022/05/24 01:22:53;;;;;;;6.63;5.37;;;;;;;22.42;54.78;98408.16;4136917;28;20237;-69
2022/05/24 01:25:09;;;;;;;4.50;4.10;;;;;;;23.49;53.03;98396.34;4130129;28;20233;-69
2022/05/24 01:27:11;;;;;;;6.30;4.50;;;;;;;23.23;53.11;98394.81;4138409;28;20295;-69
2022/05/24 01:29:13;;;;;;;5.33;4.83;;;;;;;23.36;52.56;98392.31;4129017;28;20243;-67
2022/05/24 01:31:14;;;;;;;6.90;5.07;;;;;;;23.81;52.01;98380.78;4131065;28;20237;-67
2022/05/24 01:37:57;;;;;;;8.07;4.90;;;;;;;24.18;51.01;98385.72;4131044;28;20276;-69
2022/05/24 01:40:01;;;;;;;5.67;4.90;;;;;;;24.33;50.50;98387.53;4130588;28;20237;-69
2022/05/24 01:42:04;;;;;;;6.23;4.90;;;;;;;23.85;51.64;98382.63;4137756;28;20303;-69
2022/05/24 01:44:07;;;;;;;5.67;4.87;;;;;;;23.66;51.67;98390.59;4141936;28;20283;-69
2022/05/24 01:46:11;;;;;;;7.07;4.93;;;;;;;23.52;52.02;98390.38;4136290;28;20233;-69
2022/05/24 01:48:17;;;;;;;6.77;4.43;;;;;;;23.41;52.49;98383.34;4137331;28;20337;-69
2022/05/24 01:50:22;;;;;;;5.00;4.50;;;;;;;23.77;51.34;98391.34;4140374;28;20287;-68
2022/05/24 01:52:54;;;;;;;5.33;4.10;;;;;;;23.00;52.34;98384.31;4140967;28;20238;-68
2022/05/24 01:55:03;;;;;;;5.27;4.07;;;;;;;22.88;52.17;98389.19;4141546;28;20217;-68
2022/05/24 01:57:12;;;;;;;5.50;4.53;;;;;;;23.22;52.12;98385.88;4140879;28;20755;-68
2022/05/24 01:59:16;;;;;;;5.37;4.10;;;;;;;23.93;50.92;98376.63;4136299;28;20234;-68
2022/05/24 02:01:34;;;;;;;3.80;3.50;;;;;;;23.07;52.57;98389.44;4140120;28;20915;-68
2022/05/24 02:03:35;;;;;;;9.00;4.33;;;;;;;21.03;56.22;98387.91;4137433;28;20229;-68
2022/05/24 02:05:40;;;;;;;9.37;4.27;;;;;;;22.04;54.21;98388.59;4142449;28;20314;-68
2022/05/24 02:07:41;;;;;;;4.77;4.07;;;;;;;20.99;56.91;98380.31;4140201;28;20289;-68
2022/05/24 02:09:49;;;;;;;7.03;4.37;;;;;;;21.83;55.27;98372.31;4140207;28;20683;-68
2022/05/24 02:11:52;;;;;;;8.13;4.73;;;;;;;20.60;57.76;98369.75;4140361;28;20243;-68
2022/05/24 02:14:09;;;;;;;5.73;4.30;;;;;;;21.75;55.81;98362.00;4139000;28;20279;-68
2022/05/24 02:16:15;;;;;;;6.00;4.80;;;;;;;21.84;55.52;98367.72;4135905;28;20332;-68
2022/05/24 02:18:20;;;;;;;4.93;4.27;;;;;;;22.50;53.90;98363.47;4139063;28;20233;-68
2022/05/24 02:20:29;;;;;;;5.33;4.10;;;;;;;23.42;51.99;98362.47;4130123;28;20246;-68
2022/05/24 02:22:31;;;;;;;4.37;3.90;;;;;;;23.11;52.18;98366.09;4134739;28;20268;-69
2022/05/24 02:24:33;;;;;;;6.20;4.30;;;;;;;22.98;52.44;98369.41;4135529;28;20292;-69
2022/05/24 02:26:35;;;;;;;6.83;4.43;;;;;;;21.76;54.97;98376.34;4133879;28;20234;-68
2022/05/24 02:28:37;;;;;;;4.87;4.33;;;;;;;22.23;54.38;98372.63;4126786;28;20331;-68
2022/05/24 02:30:42;;;;;;;5.60;4.77;;;;;;;22.51;53.37;98359.66;4139802;28;21230;-68
2022/05/24 02:32:44;;;;;;;4.97;4.30;;;;;;;23.31;51.45;98361.72;4143420;28;20249;-68
2022/05/24 02:34:46;;;;;;;4.43;4.10;;;;;;;22.15;54.18;98373.16;4140431;28;20241;-68
2022/05/24 02:36:49;;;;;;;4.37;3.80;;;;;;;21.92;54.78;98365.28;4143380;28;20261;-68
2022/05/24 02:38:50;;;;;;;4.97;4.20;;;;;;;22.65;53.05;98363.47;4141405;28;20782;-68
2022/05/24 02:43:12;;;;;;;4.93;4.40;;;;;;;22.87;52.28;98357.72;4134426;28;20238;-69
2022/05/24 02:45:14;;;;;;;7.57;4.50;;;;;;;22.90;52.19;98359.09;4131436;28;20268;-69
2022/05/24 02:47:17;;;;;;;6.37;4.07;;;;;;;22.59;52.76;98353.69;4143584;28;20233;-68
2022/05/24 02:49:18;;;;;;;9.37;4.40;;;;;;;21.84;54.57;98362.31;4140855;28;20237;-68
2022/05/24 02:51:20;;;;;;;4.40;4.00;;;;;;;22.75;52.70;98360.72;4137785;28;20234;-68
2022/05/24 02:53:22;;;;;;;5.33;3.90;;;;;;;23.26;51.40;98362.53;4132857;28;20287;-68
2022/05/24 02:55:24;;;;;;;7.60;4.30;;;;;;;22.96;51.61;98375.09;4139618;28;20738;-68
2022/05/24 02:57:26;;;;;;;4.70;4.20;;;;;;;22.63;52.71;98373.75;4140470;28;20240;-69
2022/05/24 02:59:28;;;;;;;6.33;3.77;;;;;;;22.52;52.50;98381.06;4138695;28;20311;-68
2022/05/24 03:01:30;;;;;;;3.83;3.50;;;;;;;23.19;50.92;98375.56;4141772;28;20271;-68
2022/05/24 03:03:32;;;;;;;3.60;3.30;;;;;;;23.37;50.74;98379.59;4136855;28;20233;-68
2022/05/24 03:05:34;;;;;;;7.20;3.83;;;;;;;23.65;50.01;98366.47;4142978;28;20937;-68
2022/05/24 03:09:56;;;;;;;5.47;3.20;;;;;;;22.70;51.92;98379.72;4136273;28;20237;-69
2022/05/24 03:14:20;;;;;;;4.17;3.70;;;;;;;23.06;51.22;98365.31;4137930;28;20279;-68
2022/05/24 03:16:21;;;;;;;5.33;3.40;;;;;;;23.23;50.64;98364.97;4133215;28;20369;-68
2022/05/24 03:18:24;;;;;;;5.53;3.53;;;;;;;22.18;52.71;98367.22;4144302;28;20271;-68
2022/05/24 03:20:26;;;;;;;4.67;3.60;;;;;;;21.75;52.97;98366.59;4141578;28;20260;-68
2022/05/24 03:22:28;;;;;;;4.07;3.67;;;;;;;21.85;52.58;98366.63;4137930;28;20761;-68
2022/05/24 03:24:30;;;;;;;5.40;3.30;;;;;;;22.21;51.76;98369.41;4140567;28;20237;-68
2022/05/24 03:26:31;;;;;;;3.90;3.10;;;;;;;22.99;50.79;98352.84;4142114;28;20372;-68
2022/05/24 03:28:33;;;;;;;4.77;3.47;;;;;;;23.51;49.70;98344.53;4137123;28;20737;-68
2022/05/24 03:30:41;;;;;;;4.37;3.40;;;;;;;24.07;48.66;98348.84;4136661;28;20295;-69
2022/05/24 03:32:43;;;;;;;4.67;3.50;;;;;;;23.51;49.44;98348.06;4141134;28;20791;-69
2022/05/24 03:34:45;;;;;;;4.73;3.37;;;;;;;23.48;49.35;98348.59;4131996;28;20250;-67
2022/05/24 03:36:47;;;;;;;8.23;3.20;;;;;;;23.25;49.77;98351.97;4139081;28;20257;-68
2022/05/24 03:38:49;;;;;;;3.50;3.20;;;;;;;22.69;51.41;98344.75;4139112;28;20238;-68
2022/05/24 03:40:50;;;;;;;5.80;3.63;;;;;;;23.29;49.91;98342.19;4137676;28;20284;-69
2022/05/24 03:42:54;;;;;;;4.20;3.20;;;;;;;23.35;49.42;98344.59;4139925;28;20229;-69
2022/05/24 03:44:56;;;;;;;3.53;3.20;;;;;;;22.87;50.40;98340.66;4136876;28;20721;-69
2022/05/24 03:46:58;;;;;;;4.77;3.10;;;;;;;23.01;50.51;98336.31;4130338;28;20615;-69
2022/05/24 03:48:59;;;;;;;8.40;3.50;;;;;;;23.04;50.08;98341.19;4137406;28;20271;-68
2022/05/24 03:51:02;;;;;;;5.57;3.57;;;;;;;22.35;51.20;98339.91;4130874;28;20256;-68
2022/05/24 03:53:03;;;;;;;3.00;2.80;;;;;;;22.57;50.90;98342.34;4137253;28;20226;-69
2022/05/24 03:55:05;;;;;;;3.70;3.40;;;;;;;22.49;50.73;98346.41;4132237;28;20729;-68
2022/05/24 03:59:27;;;;;;;3.43;3.10;;;;;;;22.40;51.15;98354.25;4138865;28;20233;-68
2022/05/24 04:01:29;;;;;;;3.20;2.90;;;;;;;22.65;50.86;98344.50;4137821;28;20233;-69
2022/05/24 04:03:31;;;;;;;3.73;3.17;;;;;;;22.02;51.75;98361.00;4130190;28;20234;-69
2022/05/24 04:05:34;;;;;;;6.20;2.87;;;;;;;21.55;52.54;98362.72;4132984;28;20241;-68
2022/05/24 04:07:37;;;;;;;4.60;3.43;;;;;;;21.68;52.48;98359.56;4135264;28;20234;-69
2022/05/24 04:09:39;;;;;;;7.37;3.50;;;;;;;22.92;50.69;98346.91;4139593;28;20233;-68
2022/05/24 04:11:42;;;;;;;4.00;3.20;;;;;;;21.70;52.19;98370.13;4139544;28;20237;-68
2022/05/24 04:13:43;;;;;;;3.60;3.30;;;;;;;22.25;51.93;98356.94;4146008;28;20311;-69
2022/05/24 04:15:45;;;;;;;3.60;3.30;;;;;;;22.11;51.89;98359.38;4139191;28;20233;-68
2022/05/24 04:17:47;;;;;;;3.43;3.13;;;;;;;22.59;50.99;98361.84;4142560;28;20787;-69
2022/05/24 04:19:49;;;;;;;3.70;3.10;;;;;;;21.49;52.66;98375.41;4144146;28;20246;-69
2022/05/24 04:21:51;;;;;;;4.17;2.90;;;;;;;20.82;54.94;98376.94;4140252;28;20752;-68
2022/05/24 04:23:53;;;;;;;3.30;3.00;;;;;;;21.89;53.20;98355.00;4141999;28;20233;-69
2022/05/24 04:25:55;;;;;;;6.10;3.40;;;;;;;21.72;53.25;98366.06;4143443;28;20299;-68
2022/05/24 04:27:57;;;;;;;5.23;3.57;;;;;;;22.20;52.41;98355.06;4140602;28;20764;-69
2022/05/24 04:29:59;;;;;;;4.37;3.97;;;;;;;22.63;51.85;98350.19;4141173;28;20279;-68
2022/05/24 04:32:01;;;;;;;4.27;3.87;;;;;;;20.90;55.52;98365.63;4140328;28;20229;-69
2022/05/24 04:34:02;;;;;;;5.80;3.57;;;;;;;20.61;55.69;98376.78;4144419;28;20261;-68
2022/05/24 04:36:04;;;;;;;5.83;3.67;;;;;;;20.24;56.80;98374.00;4140659;28;20225;-68
2022/05/24 04:38:07;;;;;;;5.17;3.70;;;;;;;22.00;53.51;98355.00;4137998;28;20557;-68
2022/05/24 04:40:09;;;;;;;4.70;3.20;;;;;;;21.43;54.69;98372.97;4132582;28;20229;-68
2022/05/24 04:42:21;;;;;;;3.63;3.33;;;;;;;22.04;53.32;98362.34;4138818;28;20284;-68
2022/05/24 04:44:23;;;;;;;5.87;3.60;;;;;;;21.52;54.38;98387.59;4122105;28;20241;-69
2022/05/24 04:46:25;;;;;;;4.00;3.37;;;;;;;21.55;54.07;98377.06;4133656;28;20233;-69
2022/05/24 04:48:27;;;;;;;5.53;3.40;;;;;;;22.57;51.88;98377.56;4131133;28;20240;-69
2022/05/24 04:50:28;;;;;;;4.87;3.70;;;;;;;23.34;50.49;98388.28;4132224;28;20812;-69
2022/05/24 04:52:36;;;;;;;3.60;3.27;;;;;;;23.83;49.33;98398.38;4139160;28;20761;-69
2022/05/24 04:54:39;;;;;;;4.30;3.60;;;;;;;23.26;50.27;98405.13;4132700;28;20229;-69
2022/05/24 04:56:41;;;;;;;3.67;3.37;;;;;;;22.85;51.40;98414.09;4137803;28;20291;-69
2022/05/24 04:58:43;;;;;;;4.13;3.37;;;;;;;23.20;50.46;98407.84;4145382;28;20299;-68
2022/05/24 05:00:47;;;;;;;4.73;4.13;;;;;;;21.52;53.70;98425.47;4137915;28;20252;-68
2022/05/24 05:02:50;;;;;;;4.83;3.80;;;;;;;20.76;56.75;98404.97;4134565;28;20467;-69
2022/05/24 05:04:53;;;;;;;6.27;3.63;;;;;;;22.03;53.71;98392.38;4139989;28;20221;-68
2022/05/24 05:06:55;;;;;;;4.43;3.77;;;;;;;21.78;54.29;98401.25;4138496;28;20237;-69
2022/05/24 05:08:57;;;;;;;4.53;3.73;;;;;;;19.96;58.24;98410.16;4143621;28;20236;-69
2022/05/24 05:10:59;;;;;;;3.87;3.43;;;;;;;21.31;54.98;98401.03;4142641;28;20694;-69
2022/05/24 05:13:01;;;;;;;4.50;3.30;;;;;;;21.97;53.66;98402.38;4136162;28;20283;-68
2022/05/24 05:15:05;;;;;;;5.57;3.77;;;;;;;21.31;55.03;98417.25;4140464;28;20233;-69
2022/05/24 05:17:07;;;;;;;3.77;3.47;;;;;;;21.25;54.72;98429.09;4132157;28;20455;-69
2022/05/24 05:19:11;;;;;;;3.67;3.37;;;;;;;21.04;54.86;98430.03;4139352;28;20233;-69
2022/05/24 05:21:13;;;;;;;5.67;3.63;;;;;;;22.14;53.33;98420.28;4129209;28;20253;-68
2022/05/24 05:23:16;;;;;;;6.40;3.20;;;;;;;21.26;54.90;98443.41;4141851;28;20237;-69
2022/05/24 05:25:25;;;;;;;5.67;3.50;;;;;;;23.05;51.79;98421.44;4135470;28;20253;-69
2022/05/24 05:27:30;;;;;;;6.03;3.47;;;;;;;21.64;54.74;98442.31;4128447;28;20233;-69
2022/05/24 05:32:03;;;;;;;6.30;3.00;;;;;;;22.37;52.65;98468.56;4138636;28;20263;-69
2022/05/24 05:34:05;;;;;;;7.00;3.37;;;;;;;22.67;52.77;98476.97;4133836;28;20226;-68
2022/05/24 05:36:15;;;;;;;3.73;3.00;;;;;;;21.83;54.15;98514.88;4140328;28;20272;-69
2022/05/24 05:38:18;;;;;;;8.20;3.60;;;;;;;21.31;55.94;98525.38;4139800;28;20721;-69
2022/05/24 05:40:19;;;;;;;4.27;2.90;;;;;;;21.05;56.35;98515.47;4140757;28;20238;-69
2022/05/24 05:42:21;;;;;;;5.23;2.40;;;;;;;19.66;59.24;98536.31;4141475;28;20221;-68
2022/05/24 05:44:23;;;;;;;5.53;2.60;;;;;;;20.60;56.53;98514.75;4139680;28;20229;-68
2022/05/24 05:46:25;;;;;;;1.87;1.70;;;;;;;20.11;55.58;98520.13;4135765;28;20230;-69
2022/05/24 05:48:27;;;;;;;3.27;1.50;;;;;;;19.80;55.85;98507.09;4137218;28;20229;-68
2022/05/24 05:50:28;;;;;;;2.00;1.40;;;;;;;20.02;54.83;98517.06;4140221;28;20229;-68
2022/05/24 05:52:30;;;;;;;4.00;1.40;;;;;;;20.59;54.01;98510.44;4133876;28;20324;-69
2022/05/24 05:54:34;;;;;;;1.83;1.23;;;;;;;20.22;54.79;98519.19;4142578;28;20233;-69
2022/05/24 05:56:40;;;;;;;2.33;1.30;;;;;;;20.54;54.02;98518.50;4127204;28;20231;-68
2022/05/24 05:58:42;;;;;;;1.30;1.20;;;;;;;20.00;55.24;98513.81;4142656;28;20241;-68
2022/05/24 06:00:44;;;;;;;1.50;1.20;;;;;;;19.81;56.06;98527.59;4141559;28;20324;-68
2022/05/24 06:02:46;;;;;;;1.47;1.20;;;;;;;19.96;55.65;98524.28;4139582;28;20300;-68
2022/05/24 06:04:51;;;;;;;1.50;1.20;;;;;;;20.14;56.19;98522.34;4136547;28;20339;-69
2022/05/24 06:06:53;;;;;;;1.80;1.60;;;;;;;20.80;54.64;98522.22;4134614;28;20279;-68
2022/05/24 06:08:55;;;;;;;4.47;1.67;;;;;;;20.20;56.17;98532.94;4141989;28;20290;-69
2022/05/24 06:10:57;;;;;;;2.30;1.50;;;;;;;20.44;55.75;98530.00;4139077;28;20661;-69
2022/05/24 06:12:59;;;;;;;2.03;1.30;;;;;;;20.07;56.74;98544.13;4136092;28;20631;-68
2022/05/24 06:15:00;;;;;;;2.40;1.53;;;;;;;19.60;56.84;98552.66;4138484;28;20729;-68
2022/05/24 06:17:03;;;;;;;1.40;1.30;;;;;;;19.85;56.70;98546.81;4142542;28;20702;-69
2022/05/24 06:19:06;;;;;;;1.60;1.50;;;;;;;20.41;55.40;98547.50;4141000;28;20599;-68
2022/05/24 06:21:08;;;;;;;1.73;1.60;;;;;;;20.33;55.06;98561.47;4136591;28;20233;-69
2022/05/24 06:23:09;;;;;;;1.90;1.70;;;;;;;20.42;54.99;98554.53;4138017;28;20237;-69
2022/05/24 06:25:11;;;;;;;3.13;1.50;;;;;;;20.02;55.72;98576.44;4136691;28;20237;-69
2022/05/24 06:27:13;;;;;;;1.50;1.50;;;;;;;20.41;55.14;98569.09;4138868;28;20237;-68
2022/05/24 06:29:15;;;;;;;2.50;1.60;;;;;;;19.92;55.61;98587.09;4138843;28;20242;-68
2022/05/24 06:31:17;;;;;;;3.33;1.87;;;;;;;20.02;55.75;98571.84;4142143;28;20240;-68
2022/05/24 06:33:18;;;;;;;2.23;1.50;;;;;;;20.11;55.51;98583.03;4138480;28;20245;-68
2022/05/24 06:35:20;;;;;;;2.80;1.50;;;;;;;20.71;54.07;98602.09;4140279;28;20621;-68
2022/05/24 06:37:22;;;;;;;2.43;1.80;;;;;;;19.80;55.58;98614.16;4136143;28;20719;-69
2022/05/24 06:39:24;;;;;;;1.60;1.50;;;;;;;19.98;56.15;98629.25;4139131;28;20713;-69
2022/05/24 06:41:30;;;;;;;2.00;1.70;;;;;;;19.79;55.59;98653.81;4141157;28;20233;-69
2022/05/24 06:43:35;;;;;;;2.10;1.40;;;;;;;20.52;54.46;98639.44;4139287;28;20225;-68
2022/05/24 06:45:37;;;;;;;1.97;1.50;;;;;;;20.56;54.72;98651.34;4134181;28;20237;-68
2022/05/24 06:47:40;;;;;;;4.93;1.50;;;;;;;20.35;55.00;98677.28;4135426;28;20838;-69
2022/05/24 06:49:42;;;;;;;2.10;1.90;;;;;;;20.59;54.76;98688.66;4139039;28;20279;-68
2022/05/24 06:51:43;;;;;;;2.03;1.57;;;;;;;20.95;54.52;98686.41;4127918;28;20572;-69
2022/05/24 06:53:47;;;;;;;2.50;1.77;;;;;;;20.78;54.22;98683.75;4134089;28;20241;-68
2022/05/24 06:55:48;;;;;;;1.87;1.60;;;;;;;20.94;54.05;98688.28;4126155;28;20268;-69
2022/05/24 06:57:50;;;;;;;2.33;2.03;;;;;;;19.88;56.08;98717.06;4140186;28;20609;-69
2022/05/24 07:02:26;;;;;;;2.00;1.80;;;;;;;20.65;54.78;98698.47;4119474;28;20241;-69
2022/05/24 07:04:28;;;;;;;2.70;1.97;;;;;;;20.99;53.92;98706.47;4135665;28;20692;-69
2022/05/24 07:06:29;;;;;;;2.40;1.73;;;;;;;21.27;53.45;98710.00;4133527;28;21049;-69
2022/05/24 07:08:31;;;;;;;3.97;1.80;;;;;;;20.20;55.47;98727.25;4139108;28;20295;-69
2022/05/24 07:10:35;;;;;;;1.80;1.67;;;;;;;21.31;53.59;98703.81;4139462;28;20292;-68
2022/05/24 07:12:37;;;;;;;2.10;1.50;;;;;;;21.62;53.44;98717.63;4139559;28;20306;-69
2022/05/24 07:14:38;;;;;;;4.07;1.60;;;;;;;21.48;52.82;98728.06;4140832;28;20295;-69
2022/05/24 07:16:40;;;;;;;2.27;1.70;;;;;;;21.59;53.57;98737.06;4143646;28;20244;-69
2022/05/24 07:18:42;;;;;;;1.80;1.50;;;;;;;19.26;57.93;98752.88;4138272;28;20244;-73
2022/05/24 07:20:43;;;;;;;1.80;1.50;;;;;;;20.82;55.74;98733.53;4132268;28;20577;-71
2022/05/24 07:22:45;;;;;;;1.53;1.43;;;;;;;20.09;57.12;98740.84;4136786;28;20237;-72
2022/05/24 07:24:49;;;;;;;3.27;1.80;;;;;;;20.69;56.21;98726.59;4124005;28;20809;-71
2022/05/24 07:26:51;;;;;;;1.60;1.50;;;;;;;21.39;54.60;98726.06;4135347;28;20617;-71
2022/05/24 07:28:55;;;;;;;3.23;1.60;;;;;;;20.57;55.65;98759.13;4130241;28;20317;-70
2022/05/24 07:30:57;;;;;;;3.07;1.60;;;;;;;21.27;55.54;98732.44;4137753;28;20306;-71
2022/05/24 07:32:59;;;;;;;2.67;2.00;;;;;;;21.39;55.23;98742.28;4139013;28;20289;-71
2022/05/24 07:35:02;;;;;;;2.17;1.80;;;;;;;21.64;55.39;98736.34;4139150;28;20286;-71
2022/05/24 07:37:06;;;;;;;4.00;1.60;;;;;;;20.50;56.50;98746.84;4134418;28;20233;-69
2022/05/24 07:39:08;;;;;;;3.33;2.10;;;;;;;21.53;54.60;98747.03;4140334;28;20675;-70
2022/05/24 07:46:08;;;;;;;2.17;1.90;;;;;;;21.51;53.85;98761.88;4141543;28;20242;-70
2022/05/24 07:48:11;;;;;;;3.43;2.10;;;;;;;21.57;54.12;98768.16;4143892;28;20302;-70
2022/05/24 07:50:12;;;;;;;2.03;1.70;;;;;;;21.51;54.34;98760.00;4141007;28;20570;-70
2022/05/24 07:52:14;;;;;;;1.90;1.80;;;;;;;21.53;52.83;98763.25;4141355;28;20283;-71
2022/05/24 07:54:16;;;;;;;2.80;2.10;;;;;;;20.68;53.63;98787.09;4140421;28;20536;-70
2022/05/24 07:56:19;;;;;;;2.10;1.90;;;;;;;20.64;54.52;98768.94;4142159;28;20366;-70
2022/05/24 07:58:20;;;;;;;1.80;1.70;;;;;;;20.41;54.16;98776.97;4140140;28;20268;-69
2022/05/24 08:00:22;;;;;;;1.90;1.50;;;;;;;20.53;54.21;98776.06;4143031;28;20279;-70
2022/05/24 08:02:24;;;;;;;2.13;1.80;;;;;;;21.21;53.96;98776.72;4138647;28;20225;-70
2022/05/24 08:04:26;;;;;;;2.27;1.57;;;;;;;21.19;53.51;98773.41;4146000;28;20233;-70
2022/05/24 08:06:33;;;;;;;2.77;1.80;;;;;;;21.10;52.84;98791.16;4141360;28;22015;-70
2022/05/24 08:08:35;;;;;;;1.70;1.60;;;;;;;21.18;52.66;98772.63;4140816;28;20296;-69
2022/05/24 08:10:38;;;;;;;2.03;1.80;;;;;;;20.28;53.23;98792.69;4136483;28;20284;-70
2022/05/24 08:12:40;;;;;;;1.43;1.33;;;;;;;20.68;53.32;98787.09;4141705;28;20248;-70
2022/05/24 08:14:41;;;;;;;2.60;1.97;;;;;;;21.06;51.95;98784.66;4141329;28;20241;-70
2022/05/24 08:16:44;;;;;;;3.30;1.60;;;;;;;21.21;51.78;98776.72;4143451;28;20247;-70
2022/05/24 08:18:45;;;;;;;1.70;1.60;;;;;;;21.97;51.23;98780.47;4142679;28;20756;-70
2022/05/24 08:20:48;;;;;;;1.70;1.60;;;;;;;21.51;52.55;98791.63;4141526;28;20259;-70
2022/05/24 08:22:50;;;;;;;2.40;1.87;;;;;;;22.53;51.14;98766.53;4137706;28;20245;-70
2022/05/24 08:24:51;;;;;;;4.00;2.77;;;;;;;21.86;51.76;98788.47;4128576;28;20225;-69
2022/05/24 08:26:53;;;;;;;2.40;1.93;;;;;;;21.91;51.62;98787.69;4143322;28;20323;-70
2022/05/24 08:28:55;;;;;;;2.77;2.23;;;;;;;21.30;53.08;98777.88;4137028;28;20237;-70
2022/05/24 08:30:57;;;;;;;1.97;1.60;;;;;;;22.00;51.83;98778.06;4135825;28;20419;-70
2022/05/24 08:32:58;;;;;;;2.87;1.63;;;;;;;22.53;50.14;98788.19;4140642;28;20237;-69
2022/05/24 08:35:01;;;;;;;1.70;1.60;;;;;;;22.02;51.04;98797.56;4140843;28;20241;-69
2022/05/24 08:37:04;;;;;;;1.77;1.67;;;;;;;22.81;50.34;98782.41;4138927;28;20249;-70
2022/05/24 08:39:06;;;;;;;1.97;1.83;;;;;;;22.21;51.01;98792.53;4128135;28;20291;-70
2022/05/24 08:41:25;;;;;;;2.60;1.60;;;;;;;21.66;51.66;98781.00;4143865;28;20609;-70
2022/05/24 08:43:45;;;;;;;2.10;1.53;;;;;;;22.00;51.51;98775.34;4137729;28;20291;-69
2022/05/24 08:48:23;;;;;;;2.60;1.63;;;;;;;21.63;51.97;98773.41;4132442;28;20320;-70
2022/05/24 08:50:29;;;;;;;2.77;1.60;;;;;;;20.95;51.70;98789.91;4141882;28;20282;-69
2022/05/24 08:52:36;;;;;;;1.70;1.60;;;;;;;21.09;51.40;98782.25;4139859;28;20229;-69
2022/05/24 08:54:43;;;;;;;1.83;1.60;;;;;;;21.99;50.82;98765.59;4140103;28;20280;-70
2022/05/24 08:56:51;;;;;;;2.67;1.33;;;;;;;21.78;50.62;98780.00;4138382;28;20247;-69
2022/05/24 08:59:02;;;;;;;1.50;1.40;;;;;;;22.50;49.98;98764.34;4141498;28;20224;-69
2022/05/24 09:01:17;;;;;;;1.83;1.50;;;;;;;22.43;50.01;98775.41;4144541;28;20225;-69
2022/05/24 09:03:24;;;;;;;2.67;1.40;;;;;;;22.48;49.03;98771.91;4137972;28;20230;-69
2022/05/24 09:05:50;;;;;;;1.63;1.53;;;;;;;22.35;47.88;98784.00;4141075;28;20871;-69
2022/05/24 09:07:52;;;;;;;1.33;1.30;;;;;;;22.06;47.57;98777.00;4132816;28;20232;-70
2022/05/24 09:10:12;;;;;;;2.30;1.17;;;;;;;21.81;47.65;98776.78;4138820;28;20241;-70
2022/05/24 09:12:32;;;;;;;1.80;1.20;;;;;;;22.34;47.47;98766.97;4139884;28;20234;-69
2022/05/24 09:14:34;;;;;;;2.40;1.50;;;;;;;21.57;48.00;98774.38;4141963;28;20271;-70
2022/05/24 09:16:47;;;;;;;3.60;1.63;;;;;;;21.61;47.66;98789.00;4139731;28;20233;-69
2022/05/24 09:19:06;;;;;;;1.40;1.30;;;;;;;21.61;48.28;98783.59;4140484;28;20607;-69
2022/05/24 09:21:19;;;;;;;2.07;1.30;;;;;;;21.98;47.97;98779.38;4144858;28;20237;-69
2022/05/24 09:23:41;;;;;;;2.67;1.40;;;;;;;22.70;47.19;98763.63;4140666;28;20780;-70
2022/05/24 09:26:06;;;;;;;2.00;1.43;;;;;;;21.63;47.92;98791.50;4146123;28;20235;-69
2022/05/24 09:28:08;;;;;;;1.80;1.70;;;;;;;22.68;47.05;98772.03;4134215;28;20230;-69
2022/05/24 09:30:31;;;;;;;2.20;1.70;;;;;;;22.55;47.77;98767.06;4134441;28;20245;-69
2022/05/24 09:32:44;;;;;;;2.23;1.47;;;;;;;23.74;46.91;98761.81;4132711;28;20222;-70
2022/05/24 09:34:46;;;;;;;1.60;1.50;;;;;;;23.00;47.27;98773.84;4135493;28;20291;-69
2022/05/24 09:37:00;;;;;;;1.60;1.40;;;;;;;22.39;46.85;98775.13;4135099;28;20235;-69
2022/05/24 09:39:06;;;;;;;3.53;1.50;;;;;;;22.94;46.54;98770.28;4140324;28;20233;-69
2022/05/24 09:41:18;;;;;;;3.27;1.60;;;;;;;22.54;46.46;98778.97;4141494;28;20283;-70
2022/05/24 09:43:30;;;;;;;1.20;1.10;;;;;;;23.51;47.40;98770.44;4140252;28;20232;-70
2022/05/24 09:45:36;;;;;;;2.30;1.90;;;;;;;22.76;46.27;98766.13;4141779;28;20240;-69
2022/05/24 09:47:44;;;;;;;3.00;1.57;;;;;;;22.96;46.16;98770.84;4141535;28;20693;-69
2022/05/24 09:49:45;;;;;;;2.47;1.50;;;;;;;22.91;46.16;98781.63;4141241;28;20237;-69
2022/05/24 09:51:49;;;;;;;5.07;1.70;;;;;;;23.23;45.12;98785.28;4134432;28;20229;-69
2022/05/24 09:53:54;;;;;;;1.30;1.03;;;;;;;23.34;44.34;98782.34;4142108;28;20237;-71
2022/05/24 09:56:01;;;;;;;1.40;1.30;;;;;;;23.43;44.90;98782.63;4134441;28;20733;-71
2022/05/24 09:58:25;;;;;;;1.43;1.30;;;;;;;23.42;44.90;98775.59;4139758;28;20608;-71
2022/05/24 10:00:26;;;;;;;3.43;1.70;;;;;;;23.72;44.09;98784.88;4134238;28;20264;-71
2022/05/24 10:02:31;;;;;;;1.77;1.50;;;;;;;23.10;44.29;98792.03;4134657;28;20233;-70
2022/05/24 10:04:36;;;;;;;1.90;1.80;;;;;;;23.09;43.08;98788.50;4138256;28;20668;-71
2022/05/24 10:06:42;;;;;;;1.73;1.40;;;;;;;23.11;42.08;98793.66;4132608;28;20416;-71
2022/05/24 10:08:47;;;;;;;1.10;1.10;;;;;;;23.07;42.40;98798.78;4138233;28;20237;-70
2022/05/24 10:10:56;;;;;;;1.60;1.50;;;;;;;22.78;42.60;98788.34;4138725;28;20246;-70
2022/05/24 10:13:13;;;;;;;3.30;1.30;;;;;;;23.46;43.32;98782.09;4141404;28;20224;-70
2022/05/24 10:15:29;;;;;;;1.10;1.10;;;;;;;23.35;41.86;98792.13;4136537;28;20895;-70